createdAt,value
2017-12-20T00:02:05.202Z,86.40
2017-12-20T00:04:34.206Z,86.50
2017-12-20T00:07:02.375Z,86.50
2017-12-20T00:09:30.529Z,86.20
2017-12-20T00:11:58.678Z,87.20
2017-12-20T00:14:26.906Z,88.50
2017-12-20T00:16:55.070Z,87.20
2017-12-20T00:19:23.229Z,89.10
2017-12-20T00:21:51.382Z,88.80
2017-12-20T00:24:20.626Z,87.50
2017-12-20T00:26:48.784Z,88.80
2017-12-20T00:29:17.700Z,88.80
2017-12-20T00:31:45.854Z,88.80
2017-12-20T00:34:14.136Z,90.40
2017-12-20T00:36:42.299Z,90.00
2017-12-20T00:39:10.486Z,89.80
2017-12-20T00:41:38.638Z,90.20
2017-12-20T00:44:06.809Z,88.80
2017-12-20T00:46:34.965Z,90.00
2017-12-20T00:49:03.127Z,89.20
2017-12-20T00:51:31.271Z,89.20
2017-12-20T00:53:59.444Z,89.80
2017-12-20T00:56:27.602Z,90.30
2017-12-20T00:58:55.761Z,90.40
2017-12-20T01:01:23.927Z,90.00
2017-12-20T01:03:52.100Z,90.30
2017-12-20T01:06:20.256Z,88.80
2017-12-20T01:08:48.413Z,89.50
2017-12-20T01:11:16.569Z,89.60
2017-12-20T01:13:44.740Z,89.20
2017-12-20T01:16:12.903Z,88.40
2017-12-20T01:18:41.058Z,88.10
2017-12-20T01:21:09.221Z,90.00
2017-12-20T01:23:37.360Z,88.50
2017-12-20T01:26:13.365Z,89.10
2017-12-20T01:28:42.442Z,90.10
2017-12-20T01:31:10.646Z,90.10
2017-12-20T01:33:38.807Z,90.30
2017-12-20T01:36:07.812Z,89.30
2017-12-20T01:38:35.968Z,89.30
2017-12-20T01:41:04.120Z,89.40
2017-12-20T01:43:32.322Z,89.50
2017-12-20T01:46:00.502Z,90.30
2017-12-20T01:48:28.658Z,89.60
2017-12-20T01:50:56.821Z,90.10
2017-12-20T01:53:24.969Z,90.50
2017-12-20T01:55:53.197Z,90.80
2017-12-20T01:58:21.908Z,90.80
2017-12-20T02:00:50.051Z,90.00
2017-12-20T02:03:18.950Z,87.20
2017-12-20T02:05:47.936Z,89.70
2017-12-20T02:08:16.858Z,90.10
2017-12-20T02:10:45.013Z,90.10
2017-12-20T02:13:13.180Z,89.80
2017-12-20T02:15:44.127Z,88.00
2017-12-20T02:18:12.270Z,88.00
2017-12-20T02:20:40.434Z,87.50
2017-12-20T02:23:08.597Z,86.80
2017-12-20T02:25:36.813Z,89.60
2017-12-20T02:28:04.973Z,87.00
2017-12-20T02:30:33.118Z,87.70
2017-12-20T02:33:01.286Z,88.40
2017-12-20T02:35:29.533Z,87.30
2017-12-20T02:37:57.693Z,88.10
2017-12-20T02:40:26.609Z,89.80
2017-12-20T02:42:54.757Z,89.80
2017-12-20T02:45:23.030Z,90.20
2017-12-20T02:47:51.165Z,89.60
2017-12-20T02:50:20.262Z,90.10
2017-12-20T02:52:48.429Z,90.40
2017-12-20T02:55:16.581Z,87.60
2017-12-20T02:57:44.736Z,89.10
2017-12-20T03:00:12.899Z,89.30
2017-12-20T03:02:41.041Z,90.10
2017-12-20T03:05:13.126Z,90.50
2017-12-20T03:07:41.270Z,90.10
2017-12-20T03:10:09.439Z,90.60
2017-12-20T03:12:37.583Z,89.20
2017-12-20T03:15:05.833Z,89.60
2017-12-20T03:17:34.758Z,90.70
2017-12-20T03:20:02.915Z,90.70
2017-12-20T03:22:31.058Z,90.70
2017-12-20T03:24:59.358Z,89.70
2017-12-20T03:27:27.507Z,90.10
2017-12-20T03:29:56.422Z,90.70
2017-12-20T03:32:24.575Z,90.70
2017-12-20T03:34:53.489Z,90.00
2017-12-20T03:37:21.632Z,90.00
2017-12-20T03:39:49.781Z,90.50
2017-12-20T03:42:17.939Z,90.00
2017-12-20T03:44:48.222Z,90.50
2017-12-20T03:47:16.555Z,90.20
2017-12-20T03:49:44.706Z,89.90
2017-12-20T03:52:12.861Z,90.20
2017-12-20T03:54:42.162Z,90.50
2017-12-20T03:57:10.352Z,90.20
2017-12-20T03:59:38.516Z,90.40
2017-12-20T04:02:06.674Z,90.80
2017-12-20T04:04:39.337Z,90.30
2017-12-20T04:07:08.243Z,90.80
2017-12-20T04:09:36.387Z,90.80
2017-12-20T04:12:04.536Z,91.00
2017-12-20T04:14:33.689Z,90.90
2017-12-20T04:17:01.846Z,90.00
2017-12-20T04:19:30.754Z,90.20
2017-12-20T04:21:58.901Z,90.20
2017-12-20T04:24:28.011Z,90.20
2017-12-20T04:26:56.156Z,90.60
2017-12-20T04:29:24.336Z,90.30
2017-12-20T04:31:52.549Z,90.50
2017-12-20T04:34:24.189Z,91.00
2017-12-20T04:36:54.306Z,90.10
2017-12-20T04:39:22.474Z,90.60
2017-12-20T04:41:51.395Z,91.00
2017-12-20T04:44:19.552Z,91.00
2017-12-20T04:46:47.694Z,90.20
2017-12-20T04:49:15.852Z,90.30
2017-12-20T04:51:44.000Z,90.70
2017-12-20T04:54:12.247Z,90.20
2017-12-20T04:56:40.418Z,90.50
2017-12-20T04:59:08.562Z,90.90
2017-12-20T05:01:36.689Z,90.90
2017-12-20T05:04:04.870Z,90.30
2017-12-20T05:06:33.025Z,90.50
2017-12-20T05:09:01.171Z,90.20
2017-12-20T05:11:29.312Z,90.10
2017-12-20T05:13:58.371Z,90.00
2017-12-20T05:16:26.602Z,90.30
2017-12-20T05:18:54.757Z,91.00
2017-12-20T05:21:22.905Z,90.50
2017-12-20T05:23:51.073Z,90.30
2017-12-20T05:26:19.224Z,90.80
2017-12-20T05:28:47.373Z,90.50
2017-12-20T05:31:15.539Z,90.30
2017-12-20T05:33:43.702Z,89.00
2017-12-20T05:36:11.863Z,87.40
2017-12-20T05:38:40.020Z,89.10
2017-12-20T05:41:08.169Z,87.90
2017-12-20T05:43:36.318Z,89.00
2017-12-20T05:46:04.475Z,87.60
2017-12-20T05:48:32.611Z,88.30
2017-12-20T05:51:00.759Z,89.80
2017-12-20T05:53:28.902Z,90.10
2017-12-20T05:55:57.930Z,90.00
2017-12-20T05:58:26.072Z,90.30
2017-12-20T06:00:54.217Z,90.30
2017-12-20T06:03:23.070Z,90.40
2017-12-20T06:05:52.071Z,89.40
2017-12-20T06:08:20.216Z,89.40
2017-12-20T06:10:48.364Z,89.50
2017-12-20T06:13:16.511Z,89.10
2017-12-20T06:15:44.762Z,89.60
2017-12-20T06:18:12.912Z,88.60
2017-12-20T06:20:41.054Z,89.40
2017-12-20T06:23:09.215Z,90.00
2017-12-20T06:25:37.448Z,90.10
2017-12-20T06:28:05.597Z,90.50
2017-12-20T06:30:33.748Z,90.50
2017-12-20T06:33:01.893Z,90.30
2017-12-20T06:35:30.149Z,90.40
2017-12-20T06:37:58.317Z,90.20
2017-12-20T06:40:26.467Z,90.40
2017-12-20T06:42:54.795Z,90.20
2017-12-20T06:45:23.045Z,90.20
2017-12-20T06:47:51.462Z,89.90
2017-12-20T06:50:19.609Z,90.70
2017-12-20T06:52:47.758Z,90.30
2017-12-20T06:55:16.167Z,90.90
2017-12-20T06:57:44.300Z,90.90
2017-12-20T07:00:13.113Z,90.40
2017-12-20T07:02:41.260Z,90.30
2017-12-20T07:05:09.461Z,90.40
2017-12-20T07:07:37.626Z,90.60
2017-12-20T07:10:06.536Z,90.20
2017-12-20T07:12:34.700Z,90.20
2017-12-20T07:15:03.092Z,90.00
2017-12-20T07:17:31.241Z,90.20
2017-12-20T07:19:59.423Z,90.80
2017-12-20T07:22:28.345Z,90.70
2017-12-20T07:24:58.566Z,90.70
2017-12-20T07:27:26.705Z,90.90
2017-12-20T07:29:55.613Z,90.70
2017-12-20T07:32:24.529Z,90.90
2017-12-20T07:34:54.728Z,90.80
2017-12-20T07:37:22.897Z,90.20
2017-12-20T07:39:51.811Z,90.30
2017-12-20T07:42:19.969Z,90.30
2017-12-20T07:44:48.128Z,90.60
2017-12-20T07:47:17.460Z,90.60
2017-12-20T07:49:45.613Z,90.60
2017-12-20T07:52:13.762Z,90.30
2017-12-20T07:54:41.954Z,89.20
2017-12-20T07:57:10.870Z,88.20
2017-12-20T07:59:39.012Z,88.20
2017-12-20T08:02:07.929Z,87.10
2017-12-20T08:04:42.120Z,87.00
2017-12-20T08:07:12.285Z,89.40
2017-12-20T08:09:42.467Z,89.40
2017-12-20T08:12:10.630Z,89.00
2017-12-20T08:14:39.644Z,89.60
2017-12-20T08:17:07.790Z,89.00
2017-12-20T08:19:35.965Z,90.00
2017-12-20T08:22:04.103Z,90.10
2017-12-20T08:24:32.341Z,88.80
2017-12-20T08:27:00.502Z,89.10
2017-12-20T08:29:28.642Z,90.70
2017-12-20T08:31:56.791Z,91.20
2017-12-20T08:34:25.047Z,90.50
2017-12-20T08:36:53.184Z,90.00
2017-12-20T08:39:21.369Z,87.90
2017-12-20T08:41:49.521Z,89.50
2017-12-20T08:44:17.725Z,86.40
2017-12-20T08:46:46.636Z,88.70
2017-12-20T08:49:14.796Z,88.70
2017-12-20T08:51:43.701Z,90.20
2017-12-20T08:54:12.871Z,90.20
2017-12-20T08:56:41.035Z,85.90
2017-12-20T08:59:09.176Z,88.70
2017-12-20T09:01:37.387Z,85.60
2017-12-20T09:04:05.502Z,88.20
2017-12-20T09:06:33.670Z,85.90
2017-12-20T09:09:01.821Z,85.10
2017-12-20T09:11:29.980Z,82.40
2017-12-20T09:13:58.132Z,86.10
2017-12-20T09:16:26.281Z,83.80
2017-12-20T09:18:54.410Z,84.60
2017-12-20T09:21:24.254Z,81.60
2017-12-20T09:23:52.392Z,81.50
2017-12-20T09:26:20.537Z,81.40
2017-12-20T09:28:48.686Z,82.20
2017-12-20T09:31:16.833Z,84.10
2017-12-20T09:33:44.987Z,84.10
2017-12-20T09:36:13.896Z,79.50
2017-12-20T09:38:42.054Z,79.50
2017-12-20T09:41:10.969Z,78.80
2017-12-20T09:43:39.130Z,78.80
2017-12-20T09:46:07.300Z,80.40
2017-12-20T09:48:36.214Z,77.10
2017-12-20T09:51:04.357Z,77.00
2017-12-20T09:53:32.531Z,75.10
2017-12-20T09:56:04.501Z,76.40
2017-12-20T09:58:33.410Z,77.10
2017-12-20T10:01:01.839Z,77.10
2017-12-20T10:03:29.974Z,76.40
2017-12-20T10:05:58.487Z,76.60
2017-12-20T10:08:26.657Z,73.90
2017-12-20T10:10:55.155Z,72.90
2017-12-20T10:13:23.284Z,73.80
2017-12-20T10:15:51.555Z,74.90
2017-12-20T10:18:19.712Z,73.80
2017-12-20T10:20:48.622Z,79.60
2017-12-20T10:23:17.693Z,79.70
2017-12-20T10:25:53.241Z,80.20
2017-12-20T10:28:21.526Z,80.10
2017-12-20T10:30:50.936Z,75.30
2017-12-20T10:33:19.087Z,79.20
2017-12-20T10:35:47.380Z,78.20
2017-12-20T10:38:15.535Z,79.70
2017-12-20T10:40:43.687Z,75.70
2017-12-20T10:43:11.862Z,78.40
2017-12-20T10:45:40.071Z,78.00
2017-12-20T10:48:08.978Z,79.70
2017-12-20T10:50:37.132Z,79.70
2017-12-20T10:53:06.070Z,75.70
2017-12-20T10:55:34.218Z,75.70
2017-12-20T10:58:02.374Z,74.80
2017-12-20T11:00:31.342Z,70.10
2017-12-20T11:03:00.378Z,70.10
2017-12-20T11:05:28.543Z,74.00
2017-12-20T11:07:56.699Z,71.90
2017-12-20T11:10:25.627Z,76.20
2017-12-20T11:12:54.661Z,76.20
2017-12-20T11:15:22.876Z,76.80
2017-12-20T11:17:51.038Z,70.30
2017-12-20T11:20:20.244Z,72.00
2017-12-20T11:22:48.399Z,72.10
2017-12-20T11:25:16.590Z,74.80
2017-12-20T11:27:44.757Z,75.00
2017-12-20T11:30:13.674Z,75.40
2017-12-20T11:32:41.832Z,75.50
2017-12-20T11:35:10.364Z,72.90
2017-12-20T11:37:38.541Z,71.30
2017-12-20T11:40:07.486Z,71.30
2017-12-20T11:42:36.602Z,69.80
2017-12-20T11:45:04.841Z,73.40
2017-12-20T11:47:34.599Z,74.60
2017-12-20T11:50:02.745Z,74.60
2017-12-20T11:52:30.910Z,73.30
2017-12-20T11:54:59.204Z,76.50
2017-12-20T11:57:27.355Z,73.40
2017-12-20T11:59:56.364Z,75.60
2017-12-20T12:02:25.828Z,75.60
2017-12-20T12:04:56.540Z,72.70
2017-12-20T12:07:24.688Z,74.40
2017-12-20T12:09:52.854Z,74.10
2017-12-20T12:12:21.016Z,74.00
2017-12-20T12:14:49.629Z,74.00
2017-12-20T12:17:19.029Z,75.50
2017-12-20T12:19:47.528Z,73.50
2017-12-20T12:22:15.691Z,73.40
2017-12-20T12:24:43.866Z,73.80
2017-12-20T12:27:12.081Z,71.10
2017-12-20T12:29:40.235Z,70.80
2017-12-20T12:32:09.447Z,72.90
2017-12-20T12:34:41.446Z,70.80
2017-12-20T12:37:09.777Z,74.50
2017-12-20T12:39:37.950Z,73.80
2017-12-20T12:42:06.096Z,76.10
2017-12-20T12:44:34.346Z,71.70
2017-12-20T12:47:02.535Z,70.90
2017-12-20T12:49:30.747Z,73.50
2017-12-20T12:51:58.889Z,73.00
2017-12-20T12:54:28.071Z,69.50
2017-12-20T12:56:56.246Z,71.40
2017-12-20T12:59:24.406Z,70.30
2017-12-20T13:01:52.559Z,70.90
2017-12-20T13:04:20.768Z,72.30
2017-12-20T13:06:48.930Z,71.00
2017-12-20T13:09:17.085Z,71.00
2017-12-20T13:11:46.170Z,72.00
2017-12-20T13:14:18.961Z,76.80
2017-12-20T13:16:48.135Z,77.70
2017-12-20T13:19:16.295Z,71.00
2017-12-20T13:21:44.450Z,73.80
2017-12-20T13:24:12.946Z,74.10
2017-12-20T13:26:41.105Z,71.40
2017-12-20T13:29:09.499Z,71.30
2017-12-20T13:31:37.649Z,72.50
2017-12-20T13:34:09.705Z,77.20
2017-12-20T13:36:37.873Z,74.80
2017-12-20T13:39:09.317Z,72.90
2017-12-20T13:41:38.229Z,75.40
2017-12-20T13:44:07.319Z,75.30
2017-12-20T13:46:35.476Z,76.40
2017-12-20T13:49:04.401Z,76.20
2017-12-20T13:51:32.556Z,76.10
2017-12-20T13:54:01.266Z,73.30
2017-12-20T13:56:30.280Z,75.50
2017-12-20T13:58:58.426Z,78.20
2017-12-20T14:01:26.793Z,77.60
2017-12-20T14:03:54.946Z,79.20
2017-12-20T14:06:23.090Z,77.80
2017-12-20T14:08:51.255Z,75.00
2017-12-20T14:11:19.408Z,72.20
2017-12-20T14:13:47.656Z,73.20
2017-12-20T14:16:15.823Z,74.00
2017-12-20T14:18:44.742Z,75.40
2017-12-20T14:21:12.900Z,75.40
2017-12-20T14:23:41.037Z,76.30
2017-12-20T14:26:09.194Z,77.20
2017-12-20T14:28:37.339Z,77.30
2017-12-20T14:31:05.499Z,79.90
2017-12-20T14:33:33.644Z,78.60
2017-12-20T14:36:01.931Z,78.50
2017-12-20T14:38:30.846Z,80.00
2017-12-20T14:40:58.997Z,80.10
2017-12-20T14:43:27.153Z,77.20
2017-12-20T14:45:56.130Z,77.50
2017-12-20T14:48:24.263Z,77.50
2017-12-20T14:50:52.420Z,78.30
2017-12-20T14:53:20.568Z,79.10
2017-12-20T14:55:49.610Z,77.60
2017-12-20T14:58:18.622Z,77.60
2017-12-20T15:00:46.770Z,77.10
2017-12-20T15:03:14.932Z,78.00
2017-12-20T15:05:43.199Z,77.20
2017-12-20T15:08:11.358Z,79.30
2017-12-20T15:10:39.523Z,78.20
2017-12-20T15:13:07.686Z,78.60
2017-12-20T15:15:38.873Z,79.90
2017-12-20T15:18:07.129Z,79.90
2017-12-20T15:20:36.053Z,79.90
2017-12-20T15:23:04.209Z,79.90
2017-12-20T15:25:35.659Z,79.80
2017-12-20T15:28:03.933Z,81.50
2017-12-20T15:30:32.077Z,82.70
2017-12-20T15:33:00.247Z,82.70
2017-12-20T15:35:34.154Z,84.30
2017-12-20T15:38:02.349Z,85.00
2017-12-20T15:40:31.351Z,85.20
2017-12-20T15:43:00.269Z,85.50
2017-12-20T15:45:32.661Z,85.50
2017-12-20T15:48:01.057Z,86.70
2017-12-20T15:50:30.104Z,87.40
2017-12-20T15:52:58.272Z,88.10
2017-12-20T15:55:40.112Z,87.10
2017-12-20T15:58:08.265Z,86.60
2017-12-20T16:00:36.542Z,86.40
2017-12-20T16:03:04.699Z,85.60
2017-12-20T16:05:32.870Z,86.40
2017-12-20T16:08:01.109Z,87.60
2017-12-20T16:10:30.274Z,88.50
2017-12-20T16:12:58.496Z,90.10
2017-12-20T16:15:27.599Z,90.00
2017-12-20T16:17:56.529Z,88.10
2017-12-20T16:20:24.717Z,87.30
2017-12-20T16:22:52.860Z,88.60
2017-12-20T16:25:21.118Z,88.10
2017-12-20T16:27:50.047Z,88.60
2017-12-20T16:30:18.216Z,88.60
2017-12-20T16:32:46.378Z,88.70
2017-12-20T16:35:15.670Z,85.10
2017-12-20T16:37:43.822Z,85.70
2017-12-20T16:40:13.506Z,88.20
2017-12-20T16:42:41.661Z,88.20
2017-12-20T16:45:11.655Z,87.60
2017-12-20T16:47:39.828Z,86.40
2017-12-20T16:50:08.780Z,85.60
2017-12-20T16:52:36.939Z,85.30
2017-12-20T16:55:05.184Z,85.70
2017-12-20T16:57:33.363Z,86.90
2017-12-20T17:00:01.668Z,86.80
2017-12-20T17:02:29.830Z,88.00
2017-12-20T17:04:58.057Z,87.20
2017-12-20T17:07:26.229Z,86.50
2017-12-20T17:09:54.393Z,86.00
2017-12-20T17:12:22.536Z,85.60
2017-12-20T17:14:50.961Z,86.20
2017-12-20T17:17:19.828Z,86.80
2017-12-20T17:19:47.972Z,87.90
2017-12-20T17:22:16.148Z,86.80
2017-12-20T17:24:44.294Z,88.30
2017-12-20T17:27:12.442Z,88.40
2017-12-20T17:29:40.597Z,88.10
2017-12-20T17:32:08.740Z,87.20
2017-12-20T17:34:36.978Z,85.40
2017-12-20T17:37:05.909Z,85.40
2017-12-20T17:39:34.056Z,86.10
2017-12-20T17:42:02.958Z,85.90
2017-12-20T17:44:32.131Z,85.90
2017-12-20T17:47:00.295Z,85.50
2017-12-20T17:49:28.453Z,86.30
2017-12-20T17:51:56.706Z,86.10
2017-12-20T17:54:24.861Z,86.10
2017-12-20T17:56:53.002Z,86.60
2017-12-20T17:59:21.919Z,86.30
2017-12-20T18:01:50.467Z,86.30
2017-12-20T18:04:19.339Z,86.00
2017-12-20T18:06:48.383Z,85.50
2017-12-20T18:09:16.552Z,84.30
2017-12-20T18:11:44.703Z,84.40
2017-12-20T18:14:12.879Z,85.00
2017-12-20T18:16:41.021Z,82.00
2017-12-20T18:19:09.173Z,82.60
2017-12-20T18:21:37.314Z,82.50
2017-12-20T18:24:11.634Z,82.60
2017-12-20T18:26:45.506Z,83.80
2017-12-20T18:29:13.677Z,84.70
2017-12-20T18:31:43.712Z,82.80
2017-12-20T18:34:13.696Z,82.80
2017-12-20T18:36:41.843Z,82.50
2017-12-20T18:39:10.004Z,83.00
2017-12-20T18:41:38.216Z,83.20
2017-12-20T18:44:06.552Z,83.60
2017-12-20T18:46:34.761Z,82.80
2017-12-20T18:49:02.923Z,83.40
2017-12-20T18:51:31.100Z,84.40
2017-12-20T18:53:59.262Z,82.00
2017-12-20T18:56:28.942Z,84.40
2017-12-20T18:58:57.119Z,84.80
2017-12-20T19:01:28.861Z,80.70
2017-12-20T19:03:56.997Z,81.90
2017-12-20T19:06:25.873Z,82.90
2017-12-20T19:08:54.044Z,82.90
2017-12-20T19:11:23.531Z,83.90
2017-12-20T19:13:51.752Z,84.70
2017-12-20T19:16:19.913Z,84.30
2017-12-20T19:18:48.074Z,85.20
2017-12-20T19:21:17.645Z,84.20
2017-12-20T19:23:45.805Z,85.00
2017-12-20T19:26:14.858Z,86.20
2017-12-20T19:28:43.270Z,87.00
2017-12-20T19:31:12.532Z,87.00
2017-12-20T19:33:40.974Z,85.60
2017-12-20T19:36:10.176Z,84.90
2017-12-20T19:38:38.371Z,83.80
2017-12-20T19:41:06.528Z,82.40
2017-12-20T19:43:34.691Z,81.80
2017-12-20T19:46:02.987Z,79.90
2017-12-20T19:48:31.171Z,82.00
2017-12-20T19:50:59.397Z,82.10
2017-12-20T19:53:27.583Z,83.20
2017-12-20T19:55:56.594Z,82.30
2017-12-20T19:58:25.858Z,82.40
2017-12-20T20:00:54.025Z,84.70
2017-12-20T20:03:22.970Z,82.10
2017-12-20T20:05:55.096Z,82.10
2017-12-20T20:08:23.259Z,82.70
2017-12-20T20:10:52.213Z,80.30
2017-12-20T20:13:21.236Z,80.30
2017-12-20T20:15:50.372Z,82.40
2017-12-20T20:18:18.552Z,83.40
2017-12-20T20:20:46.725Z,79.40
2017-12-20T20:23:14.937Z,78.40
2017-12-20T20:25:46.764Z,79.20
2017-12-20T20:28:17.079Z,81.00
2017-12-20T20:30:45.221Z,80.90
2017-12-20T20:33:14.185Z,83.70
2017-12-20T20:35:42.393Z,83.90
2017-12-20T20:38:10.614Z,83.40
2017-12-20T20:40:38.752Z,83.20
2017-12-20T20:43:08.307Z,82.20
2017-12-20T20:45:41.782Z,82.20
2017-12-20T20:48:14.777Z,82.70
2017-12-20T20:50:42.930Z,80.20
2017-12-20T20:53:13.231Z,83.20
2017-12-20T20:55:42.268Z,83.80
2017-12-20T20:58:10.518Z,83.70
2017-12-20T21:00:40.667Z,81.30
2017-12-20T21:03:09.195Z,81.30
2017-12-20T21:05:38.438Z,81.40
2017-12-20T21:08:06.593Z,82.90
2017-12-20T21:10:35.521Z,83.70
2017-12-20T21:13:03.752Z,83.70
2017-12-20T21:15:32.762Z,83.40
2017-12-20T21:18:02.437Z,83.40
2017-12-20T21:20:30.606Z,81.10
2017-12-20T21:22:58.756Z,83.30
2017-12-20T21:25:27.164Z,83.90
2017-12-20T21:27:56.137Z,81.60
2017-12-20T21:30:24.288Z,81.60
2017-12-20T21:32:52.434Z,81.50
2017-12-20T21:35:24.495Z,81.50
2017-12-20T21:37:52.699Z,82.40
2017-12-20T21:40:27.874Z,83.80
2017-12-20T21:42:56.042Z,82.80
2017-12-20T21:45:24.199Z,83.80
2017-12-20T21:47:52.357Z,81.20
2017-12-20T21:50:20.562Z,82.20
2017-12-20T21:52:48.711Z,83.30
2017-12-20T21:55:16.918Z,82.30
2017-12-20T21:57:45.873Z,83.40
2017-12-20T22:00:14.066Z,82.70
2017-12-20T22:02:42.213Z,83.30
2017-12-20T22:05:17.533Z,81.50
2017-12-20T22:07:46.818Z,80.20
2017-12-20T22:10:15.804Z,81.10
2017-12-20T22:12:44.772Z,81.50
2017-12-20T22:15:12.970Z,81.60
2017-12-20T22:17:41.111Z,78.50
2017-12-20T22:20:09.268Z,78.40
2017-12-20T22:22:37.474Z,79.10
2017-12-20T22:25:05.641Z,80.70
2017-12-20T22:27:33.833Z,81.80
2017-12-20T22:30:01.979Z,84.10
2017-12-20T22:32:30.615Z,82.30
2017-12-20T22:34:58.913Z,82.30
2017-12-20T22:37:27.079Z,81.50
2017-12-20T22:39:55.238Z,81.00
2017-12-20T22:42:23.383Z,82.00
2017-12-20T22:44:51.672Z,80.90
2017-12-20T22:47:20.331Z,81.70
2017-12-20T22:49:48.489Z,82.20
2017-12-20T22:52:16.644Z,81.70
2017-12-20T22:54:44.926Z,80.70
2017-12-20T22:57:13.097Z,80.00
2017-12-20T22:59:41.256Z,80.30
2017-12-20T23:02:09.422Z,80.60
2017-12-20T23:04:42.313Z,82.30
2017-12-20T23:07:10.486Z,82.40
2017-12-20T23:09:42.781Z,84.20
2017-12-20T23:12:10.943Z,82.70
2017-12-20T23:14:43.270Z,82.70
2017-12-20T23:17:12.819Z,83.50
2017-12-20T23:19:40.986Z,82.40
2017-12-20T23:22:09.124Z,84.30
2017-12-20T23:24:37.342Z,83.60
2017-12-20T23:27:05.511Z,85.90
2017-12-20T23:29:33.673Z,83.30
2017-12-20T23:32:01.847Z,84.70
2017-12-20T23:34:30.142Z,83.10
2017-12-20T23:36:58.285Z,84.70
2017-12-20T23:39:27.408Z,85.80
2017-12-20T23:41:55.574Z,85.80
2017-12-20T23:44:26.825Z,84.60
2017-12-20T23:46:54.990Z,81.60
2017-12-20T23:49:24.705Z,82.20
2017-12-20T23:51:52.879Z,84.20
2017-12-20T23:54:21.162Z,83.60
2017-12-20T23:56:49.329Z,81.50
2017-12-20T23:59:17.488Z,81.30
